Time;durP1;ratioP1;P1;durP2;ratioP2;P2;SDS_P1;SDS_P2;PMS_P1;PMS_P2;Temp;Humidity;BMP_temperature;BMP_pressure;BME280_temperature;BME280_humidity;BME280_pressure;Samples;Min_cycle;Max_cycle;Signal;HPM_P1;HPM_P2
2023/01/30 00:05:00;;;;;;;7.03;4.53;;;;;;;;;;10419869;28;20292;-78
2023/01/30 00:10:01;;;;;;;5.72;4.28;;;;;;;;;;10421359;28;20813;-77
2023/01/30 00:15:03;;;;;;;7.10;4.20;;;;;;;;;;10419372;28;20287;-78
2023/01/30 00:20:04;;;;;;;5.35;4.82;;;;;;;;;;10425855;28;20205;-79
2023/01/30 00:25:06;;;;;;;5.43;4.28;;;;;;;;;;10398735;28;20264;-78
2023/01/30 00:30:07;;;;;;;5.30;4.05;;;;;;;;;;10417826;28;20199;-78
2023/01/30 00:35:09;;;;;;;7.03;4.22;;;;;;;;;;10414619;28;20211;-77
2023/01/30 00:40:10;;;;;;;5.57;4.60;;;;;;;;;;10405878;28;20203;-78
2023/01/30 00:50:41;;;;;;;10.10;5.57;;;;;;;;;;10399966;28;20233;-78
2023/01/30 00:55:43;;;;;;;5.97;4.82;;;;;;;;;;10419597;28;20215;-77
2023/01/30 01:00:44;;;;;;;6.32;4.32;;;;;;;;;;10418584;28;22390;-78
2023/01/30 01:05:46;;;;;;;6.82;4.28;;;;;;;;;;10413108;28;20210;-78
2023/01/30 01:10:48;;;;;;;5.80;4.10;;;;;;;;;;10420307;28;20226;-76
2023/01/30 01:15:49;;;;;;;9.32;4.30;;;;;;;;;;10418191;28;20280;-77
2023/01/30 01:20:50;;;;;;;7.35;4.82;;;;;;;;;;10403517;28;20211;-77
2023/01/30 01:25:51;;;;;;;7.13;4.90;;;;;;;;;;10433328;28;20355;-77
2023/01/30 01:30:53;;;;;;;6.93;4.57;;;;;;;;;;10426457;28;20565;-78
2023/01/30 01:35:57;;;;;;;7.05;5.00;;;;;;;;;;10400341;28;20210;-77
2023/01/30 01:41:01;;;;;;;5.72;3.38;;;;;;;;;;10424147;28;20263;-76
2023/01/30 01:46:08;;;;;;;4.97;4.03;;;;;;;;;;10392300;28;20207;-78
2023/01/30 01:51:11;;;;;;;6.85;4.80;;;;;;;;;;10418307;28;20276;-78
2023/01/30 01:56:14;;;;;;;9.35;5.68;;;;;;;;;;10421989;28;20707;-78
2023/01/30 02:01:15;;;;;;;4.80;4.32;;;;;;;;;;10464991;28;20240;-78
2023/01/30 02:06:17;;;;;;;8.02;5.85;;;;;;;;;;10413913;28;20652;-78
2023/01/30 02:11:37;;;;;;;4.63;4.18;;;;;;;;;;10464358;28;20253;-79
2023/01/30 02:16:39;;;;;;;5.45;4.40;;;;;;;;;;10417331;28;20341;-77
2023/01/30 02:21:40;;;;;;;4.85;4.45;;;;;;;;;;10418229;28;21054;-77
2023/01/30 02:26:41;;;;;;;8.90;4.82;;;;;;;;;;10419834;28;20305;-77
2023/01/30 02:31:49;;;;;;;7.95;4.75;;;;;;;;;;10427656;28;20246;-78
2023/01/30 02:37:03;;;;;;;4.20;3.03;;;;;;;;;;10406020;28;20744;-77
2023/01/30 02:42:23;;;;;;;5.57;4.63;;;;;;;;;;10409129;28;20222;-77
2023/01/30 02:47:28;;;;;;;11.05;5.75;;;;;;;;;;10408460;28;20797;-77
2023/01/30 02:52:30;;;;;;;11.30;5.65;;;;;;;;;;10416204;28;20223;-76
2023/01/30 02:57:31;;;;;;;12.98;4.70;;;;;;;;;;10424120;28;20215;-78
2023/01/30 03:02:49;;;;;;;9.88;5.03;;;;;;;;;;10402069;28;20229;-77
2023/01/30 03:07:58;;;;;;;9.13;4.60;;;;;;;;;;10433905;28;20754;-79
2023/01/30 03:13:10;;;;;;;9.32;5.50;;;;;;;;;;10425940;28;20242;-77
2023/01/30 03:18:12;;;;;;;6.32;5.00;;;;;;;;;;10406577;28;20711;-76
2023/01/30 03:23:13;;;;;;;8.63;5.60;;;;;;;;;;10417286;28;20215;-77
2023/01/30 03:28:17;;;;;;;6.53;4.95;;;;;;;;;;10425024;28;20756;-79
2023/01/30 03:33:19;;;;;;;8.10;5.70;;;;;;;;;;10421270;28;20246;-78
2023/01/30 03:38:22;;;;;;;5.20;3.72;;;;;;;;;;10422757;28;20314;-79
2023/01/30 03:43:24;;;;;;;4.65;3.83;;;;;;;;;;10399488;28;20210;-78
2023/01/30 03:48:26;;;;;;;6.00;3.85;;;;;;;;;;10416509;28;20917;-77
2023/01/30 03:53:29;;;;;;;3.85;3.25;;;;;;;;;;10414818;28;20256;-76
2023/01/30 03:58:30;;;;;;;5.25;3.28;;;;;;;;;;10420400;28;20210;-79
2023/01/30 04:03:34;;;;;;;5.43;3.08;;;;;;;;;;10417804;28;20254;-78
2023/01/30 04:08:35;;;;;;;4.10;3.75;;;;;;;;;;10405594;28;20206;-77
2023/01/30 04:13:38;;;;;;;3.85;2.58;;;;;;;;;;10424070;28;20225;-77
2023/01/30 04:18:39;;;;;;;3.85;3.45;;;;;;;;;;10400913;28;20214;-76
2023/01/30 04:23:53;;;;;;;6.85;3.72;;;;;;;;;;10421647;28;20206;-79
2023/01/30 04:28:54;;;;;;;4.38;3.45;;;;;;;;;;10404995;28;20234;-78
2023/01/30 04:33:55;;;;;;;5.45;3.63;;;;;;;;;;10419769;28;20770;-78
2023/01/30 04:38:57;;;;;;;3.88;3.28;;;;;;;;;;10420652;28;20206;-76
2023/01/30 04:43:59;;;;;;;4.57;3.92;;;;;;;;;;10430392;28;20206;-78
2023/01/30 04:49:19;;;;;;;3.72;3.53;;;;;;;;;;10407118;28;20242;-79
2023/01/30 04:54:22;;;;;;;7.55;3.65;;;;;;;;;;10404248;28;20700;-77
2023/01/30 04:59:23;;;;;;;3.13;2.63;;;;;;;;;;10403779;28;20704;-77
2023/01/30 05:04:26;;;;;;;6.13;3.92;;;;;;;;;;10411906;28;20215;-78
2023/01/30 05:09:27;;;;;;;13.15;4.05;;;;;;;;;;10422476;28;20221;-77
2023/01/30 05:14:28;;;;;;;5.45;4.03;;;;;;;;;;10386913;28;20211;-77
2023/01/30 05:19:29;;;;;;;12.80;3.95;;;;;;;;;;10429793;28;20368;-75
2023/01/30 05:24:30;;;;;;;3.17;2.88;;;;;;;;;;10430332;28;20219;-79
2023/01/30 05:29:31;;;;;;;3.58;3.17;;;;;;;;;;10430517;28;20265;-78
2023/01/30 05:34:32;;;;;;;7.05;2.95;;;;;;;;;;10412359;28;20242;-79
2023/01/30 05:39:33;;;;;;;3.25;2.78;;;;;;;;;;10394278;28;20212;-80
2023/01/30 05:44:35;;;;;;;3.03;2.50;;;;;;;;;;10392145;28;20218;-78
2023/01/30 05:49:36;;;;;;;3.00;2.25;;;;;;;;;;10402155;28;20323;-78
2023/01/30 05:54:37;;;;;;;3.45;2.33;;;;;;;;;;10411985;28;20222;-80
2023/01/30 05:59:38;;;;;;;2.40;2.05;;;;;;;;;;10425968;28;20214;-79
2023/01/30 06:04:39;;;;;;;1.60;1.50;;;;;;;;;;10434636;28;20321;-78
2023/01/30 06:09:41;;;;;;;2.30;1.75;;;;;;;;;;10430273;28;20210;-78
2023/01/30 06:14:42;;;;;;;1.30;1.30;;;;;;;;;;10436123;28;20306;-79
2023/01/30 06:19:43;;;;;;;1.85;1.55;;;;;;;;;;10442482;28;20246;-79
2023/01/30 06:24:44;;;;;;;2.00;1.50;;;;;;;;;;10436365;28;20211;-80
2023/01/30 06:29:45;;;;;;;2.90;1.60;;;;;;;;;;10406276;28;20237;-77
2023/01/30 06:34:46;;;;;;;1.25;1.15;;;;;;;;;;10433134;28;20215;-78
2023/01/30 06:39:48;;;;;;;2.50;1.40;;;;;;;;;;10437191;28;20771;-78
2023/01/30 06:44:49;;;;;;;1.20;1.10;;;;;;;;;;10445071;28;20693;-78
2023/01/30 06:49:50;;;;;;;1.10;1.10;;;;;;;;;;10425119;28;20241;-79
2023/01/30 06:54:51;;;;;;;1.20;1.20;;;;;;;;;;10418452;28;20214;-79
2023/01/30 06:59:52;;;;;;;0.70;0.70;;;;;;;;;;10389034;28;20218;-77
2023/01/30 07:04:53;;;;;;;0.90;0.90;;;;;;;;;;10426322;28;21028;-77
2023/01/30 07:09:54;;;;;;;0.90;0.90;;;;;;;;;;10401841;28;20830;-78
2023/01/30 07:14:55;;;;;;;1.02;0.85;;;;;;;;;;10406018;28;20286;-76
2023/01/30 07:19:57;;;;;;;1.70;0.80;;;;;;;;;;10422750;28;20250;-78
2023/01/30 07:24:58;;;;;;;1.15;1.15;;;;;;;;;;10403454;28;20211;-76
2023/01/30 07:29:59;;;;;;;1.23;1.17;;;;;;;;;;10422542;28;20591;-77
2023/01/30 07:35:00;;;;;;;1.40;1.40;;;;;;;;;;10420887;28;20293;-78
2023/01/30 07:40:01;;;;;;;1.40;1.33;;;;;;;;;;10404101;28;20214;-76
2023/01/30 07:45:03;;;;;;;2.05;1.85;;;;;;;;;;10402831;28;20276;-78
2023/01/30 07:50:05;;;;;;;2.35;1.92;;;;;;;;;;10414082;28;20210;-75
2023/01/30 07:55:06;;;;;;;1.55;1.45;;;;;;;;;;10402624;28;20179;-78
2023/01/30 08:00:09;;;;;;;1.65;1.55;;;;;;;;;;10416305;28;20205;-76
2023/01/30 08:05:10;;;;;;;3.25;1.63;;;;;;;;;;10422293;28;20207;-76
2023/01/30 08:10:11;;;;;;;2.45;1.55;;;;;;;;;;10416095;28;20274;-76
2023/01/30 08:15:13;;;;;;;1.83;1.73;;;;;;;;;;10415928;28;20889;-78
2023/01/30 08:20:15;;;;;;;2.17;1.73;;;;;;;;;;10401699;28;20279;-75
2023/01/30 08:25:16;;;;;;;5.18;1.60;;;;;;;;;;10417593;28;20238;-77
2023/01/30 08:30:18;;;;;;;3.63;0.93;;;;;;;;;;10419813;28;20356;-78
2023/01/30 08:35:19;;;;;;;5.47;1.13;;;;;;;;;;10414974;28;20187;-78
2023/01/30 08:40:20;;;;;;;1.80;1.38;;;;;;;;;;10409801;28;20202;-76
2023/01/30 08:45:21;;;;;;;2.70;0.70;;;;;;;;;;10396571;28;20217;-78
2023/01/30 08:50:23;;;;;;;3.80;1.00;;;;;;;;;;10413860;28;20226;-77
2023/01/30 08:55:24;;;;;;;7.32;0.95;;;;;;;;;;10420375;28;20222;-74
2023/01/30 09:00:25;;;;;;;4.20;0.50;;;;;;;;;;10413036;28;20222;-77
2023/01/30 09:05:26;;;;;;;1.17;0.60;;;;;;;;;;10415132;28;20222;-76
2023/01/30 09:10:28;;;;;;;2.97;1.10;;;;;;;;;;10414246;28;20210;-75
2023/01/30 09:15:29;;;;;;;5.45;0.82;;;;;;;;;;10413547;28;20207;-76
2023/01/30 09:20:30;;;;;;;2.80;0.98;;;;;;;;;;10411931;28;20229;-75
2023/01/30 09:25:31;;;;;;;3.08;1.02;;;;;;;;;;10411112;28;20382;-76
2023/01/30 09:30:32;;;;;;;5.85;0.70;;;;;;;;;;10412924;28;20211;-77
2023/01/30 09:35:36;;;;;;;6.68;0.60;;;;;;;;;;10410249;28;20226;-77
2023/01/30 09:40:45;;;;;;;2.38;0.88;;;;;;;;;;10417290;28;21110;-78
2023/01/30 09:45:52;;;;;;;3.97;0.82;;;;;;;;;;10405493;28;20245;-77
2023/01/30 09:50:53;;;;;;;5.70;0.90;;;;;;;;;;10426281;28;20318;-80
2023/01/30 09:55:57;;;;;;;7.10;0.73;;;;;;;;;;10409576;28;20222;-78
2023/01/30 10:01:03;;;;;;;4.45;0.65;;;;;;;;;;10422208;28;20222;-77
2023/01/30 10:06:10;;;;;;;3.72;1.00;;;;;;;;;;10432958;28;20287;-76
2023/01/30 10:11:25;;;;;;;5.80;1.08;;;;;;;;;;10429626;28;20292;-79
2023/01/30 10:16:57;;;;;;;3.60;1.00;;;;;;;;;;10391697;28;20221;-77
2023/01/30 10:22:17;;;;;;;6.55;0.80;;;;;;;;;;10415413;28;20230;-75
2023/01/30 10:27:20;;;;;;;3.53;1.02;;;;;;;;;;10428658;28;20207;-77
2023/01/30 10:32:29;;;;;;;5.07;0.60;;;;;;;;;;10410904;28;20986;-75
2023/01/30 10:37:35;;;;;;;6.07;0.80;;;;;;;;;;10425100;28;20217;-73
2023/01/30 10:42:53;;;;;;;1.17;0.60;;;;;;;;;;10430618;28;20211;-76
2023/01/30 10:48:06;;;;;;;4.63;0.70;;;;;;;;;;10422119;28;20552;-76
2023/01/30 10:53:10;;;;;;;5.47;0.55;;;;;;;;;;10408692;28;20242;-77
2023/01/30 10:58:22;;;;;;;5.30;0.80;;;;;;;;;;10411152;28;20242;-75
2023/01/30 11:03:35;;;;;;;2.75;0.88;;;;;;;;;;10420519;28;20223;-77
2023/01/30 11:08:42;;;;;;;5.28;0.65;;;;;;;;;;10427684;28;20210;-76
2023/01/30 11:13:43;;;;;;;1.65;0.88;;;;;;;;;;10429193;28;20218;-76
2023/01/30 11:18:48;;;;;;;6.63;1.00;;;;;;;;;;10442553;28;20222;-76
2023/01/30 11:23:50;;;;;;;2.25;0.90;;;;;;;;;;10408834;28;20210;-76
2023/01/30 11:28:51;;;;;;;5.32;0.60;;;;;;;;;;10426770;28;20385;-76
2023/01/30 11:34:05;;;;;;;6.13;0.90;;;;;;;;;;10433406;28;20222;-78
2023/01/30 11:39:13;;;;;;;3.65;0.90;;;;;;;;;;10394308;28;20318;-77
2023/01/30 11:44:14;;;;;;;4.00;1.33;;;;;;;;;;10396437;28;20652;-76
2023/01/30 11:49:16;;;;;;;7.10;0.63;;;;;;;;;;10426464;28;20203;-76
2023/01/30 11:54:24;;;;;;;3.58;0.60;;;;;;;;;;10417569;28;20242;-75
2023/01/30 11:59:36;;;;;;;3.67;0.95;;;;;;;;;;10421482;28;20214;-77
2023/01/30 12:04:37;;;;;;;2.03;1.10;;;;;;;;;;10431374;28;20249;-77
2023/01/30 12:09:38;;;;;;;4.20;1.30;;;;;;;;;;10413605;28;20604;-76
2023/01/30 12:14:47;;;;;;;2.60;0.85;;;;;;;;;;10415746;28;20206;-76
2023/01/30 12:20:05;;;;;;;4.15;0.45;;;;;;;;;;10414966;28;20222;-74
2023/01/30 12:25:39;;;;;;;2.85;0.40;;;;;;;;;;10417571;28;20218;-77
2023/01/30 12:30:47;;;;;;;8.50;1.27;;;;;;;;;;10365878;28;20298;-76
2023/01/30 12:36:00;;;;;;;5.78;0.68;;;;;;;;;;10416868;28;20272;-76
2023/01/30 12:41:07;;;;;;;9.23;1.05;;;;;;;;;;10414018;28;20217;-76
2023/01/30 12:46:14;;;;;;;5.65;0.93;;;;;;;;;;10397848;28;20218;-76
2023/01/30 12:51:22;;;;;;;1.92;0.82;;;;;;;;;;10411953;28;20207;-76
2023/01/30 12:56:38;;;;;;;4.25;0.80;;;;;;;;;;10420434;28;20218;-77
2023/01/30 13:01:39;;;;;;;3.40;0.60;;;;;;;;;;10416336;28;20777;-74
2023/01/30 13:06:49;;;;;;;4.78;0.90;;;;;;;;;;10411640;28;20207;-77
2023/01/30 13:11:57;;;;;;;1.98;0.30;;;;;;;;;;10401208;28;20766;-75
2023/01/30 13:16:59;;;;;;;1.48;0.38;;;;;;;;;;10413229;28;20763;-77
2023/01/30 13:22:06;;;;;;;4.78;0.68;;;;;;;;;;10397587;28;20747;-78
2023/01/30 13:27:10;;;;;;;1.95;0.50;;;;;;;;;;10421960;28;20206;-78
2023/01/30 13:32:15;;;;;;;1.45;0.50;;;;;;;;;;10403727;28;20214;-77
2023/01/30 13:37:17;;;;;;;1.80;0.55;;;;;;;;;;10401409;28;20225;-77
2023/01/30 13:42:40;;;;;;;2.67;0.47;;;;;;;;;;10419738;28;20229;-78
2023/01/30 13:47:56;;;;;;;2.40;0.70;;;;;;;;;;10407977;28;20731;-77
2023/01/30 13:52:57;;;;;;;1.00;0.32;;;;;;;;;;10421648;28;20253;-77
2023/01/30 13:58:09;;;;;;;0.43;0.30;;;;;;;;;;10423048;28;20305;-78
2023/01/30 14:03:12;;;;;;;9.48;1.15;;;;;;;;;;10381155;28;20218;-75
2023/01/30 14:08:17;;;;;;;1.15;0.32;;;;;;;;;;10440202;28;20424;-77
2023/01/30 14:13:18;;;;;;;3.70;0.50;;;;;;;;;;10432635;28;20222;-74
2023/01/30 14:18:22;;;;;;;4.88;0.30;;;;;;;;;;10421358;28;20222;-78
2023/01/30 14:23:29;;;;;;;2.10;0.45;;;;;;;;;;10406025;28;20948;-78
2023/01/30 14:28:30;;;;;;;5.13;0.50;;;;;;;;;;10413003;28;20213;-77
2023/01/30 14:33:35;;;;;;;3.05;0.45;;;;;;;;;;10400155;28;20220;-75
2023/01/30 14:38:37;;;;;;;5.57;0.50;;;;;;;;;;10412514;28;20357;-79
2023/01/30 14:43:38;;;;;;;3.42;0.38;;;;;;;;;;10418652;28;20211;-78
2023/01/30 14:48:45;;;;;;;2.47;0.60;;;;;;;;;;10422526;28;20279;-74
2023/01/30 14:53:49;;;;;;;3.92;0.90;;;;;;;;;;10419843;28;20253;-76
2023/01/30 14:58:51;;;;;;;3.10;0.57;;;;;;;;;;10422400;28;20219;-75
2023/01/30 15:03:53;;;;;;;0.75;0.20;;;;;;;;;;10427132;28;20222;-76
2023/01/30 15:08:54;;;;;;;1.42;0.22;;;;;;;;;;10420402;28;20757;-74
2023/01/30 15:13:55;;;;;;;0.95;0.60;;;;;;;;;;10413161;28;20846;-74
2023/01/30 15:19:02;;;;;;;1.30;0.63;;;;;;;;;;10401759;28;20236;-73
2023/01/30 15:24:12;;;;;;;4.88;0.90;;;;;;;;;;10415784;28;20787;-75
2023/01/30 15:29:23;;;;;;;1.67;0.30;;;;;;;;;;10393270;28;20307;-76
2023/01/30 15:34:28;;;;;;;2.95;0.63;;;;;;;;;;10410968;28;20222;-75
2023/01/30 15:39:29;;;;;;;2.45;0.32;;;;;;;;;;10417556;28;20712;-76
2023/01/30 15:44:39;;;;;;;2.70;0.32;;;;;;;;;;10386508;28;21151;-77
2023/01/30 15:49:49;;;;;;;1.85;0.40;;;;;;;;;;10403239;28;20284;-76
2023/01/30 15:54:51;;;;;;;1.40;0.40;;;;;;;;;;10408650;28;21117;-75
2023/01/30 15:59:53;;;;;;;1.45;0.30;;;;;;;;;;10435444;28;20249;-77
2023/01/30 16:05:03;;;;;;;5.43;0.52;;;;;;;;;;10397725;28;20242;-74
2023/01/30 16:10:11;;;;;;;8.30;0.77;;;;;;;;;;10400480;28;20805;-77
2023/01/30 16:15:24;;;;;;;23.13;0.85;;;;;;;;;;10416895;28;20171;-75
2023/01/30 16:20:25;;;;;;;2.50;0.50;;;;;;;;;;10413042;28;20223;-76
2023/01/30 16:25:28;;;;;;;3.95;1.02;;;;;;;;;;10412476;28;20229;-76
2023/01/30 16:30:30;;;;;;;3.25;0.73;;;;;;;;;;10398879;28;20227;-79
2023/01/30 16:35:32;;;;;;;4.65;0.90;;;;;;;;;;10415469;28;20228;-80
2023/01/30 16:40:44;;;;;;;3.40;0.70;;;;;;;;;;10427015;28;20223;-78
2023/01/30 16:45:54;;;;;;;2.22;0.40;;;;;;;;;;10376743;28;20235;-77
2023/01/30 16:50:58;;;;;;;6.30;0.85;;;;;;;;;;10399806;28;20230;-78
2023/01/30 16:56:03;;;;;;;2.97;0.70;;;;;;;;;;10423124;28;20237;-79
2023/01/30 17:01:06;;;;;;;3.78;0.52;;;;;;;;;;10414675;28;20284;-78
2023/01/30 17:06:14;;;;;;;2.97;0.50;;;;;;;;;;10411453;28;20237;-77
2023/01/30 17:11:29;;;;;;;2.67;0.77;;;;;;;;;;10429848;28;20203;-77
2023/01/30 17:16:34;;;;;;;1.85;0.65;;;;;;;;;;10426160;28;20302;-77
2023/01/30 17:21:43;;;;;;;3.38;1.15;;;;;;;;;;10429951;28;20293;-78
2023/01/30 17:26:46;;;;;;;4.38;1.00;;;;;;;;;;10435792;28;20214;-81
2023/01/30 17:31:51;;;;;;;2.40;0.32;;;;;;;;;;10421926;28;20230;-77
2023/01/30 17:36:53;;;;;;;3.28;0.75;;;;;;;;;;10396602;28;20259;-80
2023/01/30 17:41:54;;;;;;;3.60;0.47;;;;;;;;;;10432684;28;20215;-77
2023/01/30 17:46:55;;;;;;;1.40;0.30;;;;;;;;;;10425151;28;20214;-77
2023/01/30 17:51:58;;;;;;;9.25;1.00;;;;;;;;;;10397399;28;20219;-75
2023/01/30 17:57:03;;;;;;;3.80;0.60;;;;;;;;;;10388411;28;20212;-74
2023/01/30 18:02:06;;;;;;;2.85;0.45;;;;;;;;;;10423028;28;20273;-77
2023/01/30 18:07:08;;;;;;;9.90;0.70;;;;;;;;;;10400988;28;20210;-77
2023/01/30 18:12:09;;;;;;;8.27;1.05;;;;;;;;;;10425677;28;20818;-77
2023/01/30 18:17:11;;;;;;;3.08;0.50;;;;;;;;;;10424621;28;20313;-74
2023/01/30 18:22:12;;;;;;;3.30;1.33;;;;;;;;;;10400537;28;20677;-76
2023/01/30 18:27:13;;;;;;;5.05;0.60;;;;;;;;;;10421813;28;20264;-78
2023/01/30 18:32:14;;;;;;;6.90;0.40;;;;;;;;;;10428747;28;20207;-80
2023/01/30 18:37:16;;;;;;;9.93;0.65;;;;;;;;;;10418688;28;20210;-76
2023/01/30 18:42:17;;;;;;;9.43;0.88;;;;;;;;;;10406277;28;20214;-78
2023/01/30 18:47:18;;;;;;;2.33;0.38;;;;;;;;;;10409462;28;20675;-76
2023/01/30 18:52:19;;;;;;;5.20;0.60;;;;;;;;;;10403223;28;20392;-79
2023/01/30 18:57:20;;;;;;;12.40;1.13;;;;;;;;;;10427714;28;20206;-80
2023/01/30 19:02:21;;;;;;;3.97;0.82;;;;;;;;;;10417609;28;20215;-79
2023/01/30 19:07:22;;;;;;;0.93;0.45;;;;;;;;;;10425149;28;20637;-79
2023/01/30 19:17:43;;;;;;;2.08;0.43;;;;;;;;;;10430228;28;20252;-79
2023/01/30 19:22:44;;;;;;;5.25;1.00;;;;;;;;;;10406356;28;20904;-80
2023/01/30 19:27:46;;;;;;;7.55;1.17;;;;;;;;;;10438647;28;20215;-78
2023/01/30 19:32:47;;;;;;;7.63;0.70;;;;;;;;;;10416015;28;20702;-78
2023/01/30 19:37:48;;;;;;;7.10;1.05;;;;;;;;;;10414739;28;20636;-78
2023/01/30 19:42:50;;;;;;;6.22;1.40;;;;;;;;;;10414322;28;20284;-79
2023/01/30 19:47:51;;;;;;;6.20;0.70;;;;;;;;;;10420108;28;20210;-80
2023/01/30 19:52:52;;;;;;;8.30;1.15;;;;;;;;;;10401799;28;20229;-77
2023/01/30 19:57:53;;;;;;;6.78;1.08;;;;;;;;;;10403834;28;20223;-79
2023/01/30 20:02:56;;;;;;;14.20;1.60;;;;;;;;;;10396596;28;20256;-79
2023/01/30 20:07:57;;;;;;;5.55;1.13;;;;;;;;;;10398833;28;21211;-79
2023/01/30 20:12:58;;;;;;;3.15;0.50;;;;;;;;;;10414204;28;20911;-79
2023/01/30 20:17:59;;;;;;;8.60;0.93;;;;;;;;;;10417265;28;20810;-77
2023/01/30 20:23:00;;;;;;;6.40;0.75;;;;;;;;;;10415376;28;20343;-80
2023/01/30 20:28:01;;;;;;;8.23;1.15;;;;;;;;;;10413924;28;20939;-78
2023/01/30 20:33:02;;;;;;;5.75;0.82;;;;;;;;;;10413897;28;20234;-77
2023/01/30 20:38:03;;;;;;;2.13;1.65;;;;;;;;;;10408487;28;20312;-77
2023/01/30 20:43:04;;;;;;;7.10;1.00;;;;;;;;;;10413830;28;20724;-76
2023/01/30 20:48:06;;;;;;;5.22;1.05;;;;;;;;;;10415633;28;20682;-76
2023/01/30 20:53:07;;;;;;;7.15;1.20;;;;;;;;;;10377212;28;20266;-77
2023/01/30 20:58:09;;;;;;;4.35;0.70;;;;;;;;;;10415876;28;20252;-74
2023/01/30 21:03:10;;;;;;;6.15;0.80;;;;;;;;;;10398910;28;20221;-75
2023/01/30 21:08:11;;;;;;;7.60;0.65;;;;;;;;;;10410070;28;20730;-76
2023/01/30 21:13:13;;;;;;;14.63;1.40;;;;;;;;;;10410998;28;20226;-75
2023/01/30 21:18:14;;;;;;;7.60;1.52;;;;;;;;;;10414333;28;20214;-76
2023/01/30 21:23:15;;;;;;;1.35;0.40;;;;;;;;;;10417553;28;20299;-75
2023/01/30 21:28:16;;;;;;;7.85;0.70;;;;;;;;;;10415443;28;20742;-76
2023/01/30 21:33:17;;;;;;;3.35;0.40;;;;;;;;;;10420671;28;20217;-74
2023/01/30 21:43:38;;;;;;;8.32;0.95;;;;;;;;;;10427342;28;20313;-74
2023/01/30 21:48:39;;;;;;;7.80;0.77;;;;;;;;;;10413136;28;20221;-76
2023/01/30 21:53:40;;;;;;;5.50;0.82;;;;;;;;;;10399039;28;20889;-73
2023/01/30 21:58:41;;;;;;;5.95;0.60;;;;;;;;;;10420947;28;20267;-75
2023/01/30 22:03:43;;;;;;;7.07;0.77;;;;;;;;;;10422269;28;20211;-73
2023/01/30 22:08:44;;;;;;;8.82;0.95;;;;;;;;;;10406753;28;20199;-76
2023/01/30 22:13:45;;;;;;;7.57;0.52;;;;;;;;;;10417789;28;20329;-72
2023/01/30 22:18:50;;;;;;;4.97;0.60;;;;;;;;;;10415717;28;20905;-74
2023/01/30 22:23:52;;;;;;;4.13;0.75;;;;;;;;;;10408473;28;20207;-78
2023/01/30 22:28:54;;;;;;;6.95;0.52;;;;;;;;;;10393671;28;20194;-77
2023/01/30 22:33:56;;;;;;;5.95;0.65;;;;;;;;;;10422633;28;20688;-78
2023/01/30 22:38:57;;;;;;;0.88;0.30;;;;;;;;;;10424080;28;20219;-78
2023/01/30 22:43:59;;;;;;;6.03;0.80;;;;;;;;;;10427430;28;20531;-78
2023/01/30 22:49:00;;;;;;;5.25;0.90;;;;;;;;;;10424317;28;20448;-78
2023/01/30 22:54:03;;;;;;;6.50;0.77;;;;;;;;;;10421298;28;20248;-77
2023/01/30 22:59:05;;;;;;;4.78;0.82;;;;;;;;;;10424218;28;20207;-77
2023/01/30 23:04:09;;;;;;;3.95;0.70;;;;;;;;;;10421730;28;20816;-77
2023/01/30 23:09:13;;;;;;;11.43;0.90;;;;;;;;;;10422359;28;20207;-76
2023/01/30 23:14:16;;;;;;;11.27;1.17;;;;;;;;;;10421564;28;20586;-77
2023/01/30 23:19:18;;;;;;;12.00;1.70;;;;;;;;;;10416205;28;20204;-75
2023/01/30 23:24:19;;;;;;;4.82;1.08;;;;;;;;;;10424107;28;20267;-76
2023/01/30 23:29:21;;;;;;;5.53;0.43;;;;;;;;;;10426425;28;20226;-77
2023/01/30 23:34:23;;;;;;;5.03;0.88;;;;;;;;;;10396558;28;20561;-77
2023/01/30 23:39:24;;;;;;;12.57;1.23;;;;;;;;;;10412606;28;20214;-77
2023/01/30 23:44:25;;;;;;;3.25;0.90;;;;;;;;;;10422171;28;20206;-77
2023/01/30 23:49:27;;;;;;;5.05;0.40;;;;;;;;;;10405775;28;20325;-76
2023/01/30 23:54:28;;;;;;;3.28;0.85;;;;;;;;;;10420660;28;20214;-76
2023/01/30 23:59:29;;;;;;;8.10;0.60;;;;;;;;;;10421843;28;20210;-76
